Aviation Digital Data Service (ADDS)

Output produced by TAFs form (2043 UTC 28 June 2017)
found at http://aviationweather.gov/adds/tafs/
 
KDMN 281737Z 2818/2918 29010KT P6SM SKC 
     FM282000 27013G23KT P6SM FEW100 
     FM290300 28011KT P6SM SKC 
     FM291600 28015G25KT P6SM SKC